createdAt,value
2023-05-15T00:02:28.122Z,44.08
2023-05-15T00:05:01.176Z,44.05
2023-05-15T00:07:34.701Z,44.51
2023-05-15T00:10:11.878Z,44.55
2023-05-15T00:12:45.691Z,44.60
2023-05-15T00:15:19.090Z,44.63
2023-05-15T00:17:52.144Z,44.72
2023-05-15T00:20:24.802Z,44.58
2023-05-15T00:23:01.991Z,44.58
2023-05-15T00:25:37.925Z,44.52
2023-05-15T00:28:10.890Z,44.53
2023-05-15T00:30:44.055Z,44.85
2023-05-15T00:33:17.025Z,44.85
2023-05-15T00:35:50.116Z,44.87
2023-05-15T00:38:22.836Z,44.93
2023-05-15T00:40:56.182Z,44.69
2023-05-15T00:43:30.087Z,44.90
2023-05-15T00:46:03.180Z,44.78
2023-05-15T00:48:35.916Z,44.58
2023-05-15T00:51:08.728Z,44.59
2023-05-15T00:53:42.105Z,44.71
2023-05-15T00:56:14.868Z,44.47
2023-05-15T00:58:47.802Z,44.63
2023-05-15T01:01:21.076Z,44.51
2023-05-15T01:03:54.122Z,44.56
2023-05-15T01:06:27.376Z,44.44
2023-05-15T01:09:00.928Z,44.44
2023-05-15T01:11:34.120Z,44.40
2023-05-15T01:14:07.079Z,44.30
2023-05-15T01:16:40.051Z,44.30
2023-05-15T01:19:13.060Z,44.27
2023-05-15T01:21:46.204Z,44.25
2023-05-15T01:24:19.145Z,44.31
2023-05-15T01:26:53.145Z,44.24
2023-05-15T01:29:26.273Z,44.26
2023-05-15T01:32:00.279Z,44.29
2023-05-15T01:34:32.985Z,44.12
2023-05-15T01:37:06.190Z,44.14
2023-05-15T01:39:39.095Z,44.09
2023-05-15T01:42:11.994Z,44.03
2023-05-15T01:44:44.812Z,44.12
2023-05-15T01:47:17.876Z,43.98
2023-05-15T01:49:51.306Z,44.04
2023-05-15T01:52:24.016Z,43.97
2023-05-15T01:54:57.289Z,43.98
2023-05-15T01:57:30.995Z,44.02
2023-05-15T02:00:04.052Z,43.98
2023-05-15T02:02:37.409Z,44.11
2023-05-15T02:05:11.027Z,44.09
2023-05-15T02:07:44.146Z,44.09
2023-05-15T02:10:17.139Z,44.10
2023-05-15T02:12:50.126Z,44.11
2023-05-15T02:15:23.590Z,44.10
2023-05-15T02:17:56.319Z,44.01
2023-05-15T02:20:29.221Z,44.03
2023-05-15T02:23:01.929Z,44.06
2023-05-15T02:25:35.130Z,44.13
2023-05-15T02:28:07.908Z,44.09
2023-05-15T02:30:41.153Z,43.93
2023-05-15T02:33:14.313Z,43.96
2023-05-15T02:35:47.185Z,43.98
2023-05-15T02:38:20.019Z,44.07
2023-05-15T02:40:53.310Z,44.04
2023-05-15T02:43:26.278Z,43.93
2023-05-15T02:45:59.465Z,43.90
2023-05-15T02:48:33.305Z,43.92
2023-05-15T02:51:10.180Z,43.99
2023-05-15T02:53:43.231Z,43.90
2023-05-15T02:56:16.254Z,44.09
2023-05-15T02:58:49.182Z,43.95
2023-05-15T03:01:23.399Z,44.07
2023-05-15T03:03:56.262Z,44.24
2023-05-15T03:06:29.336Z,44.39
2023-05-15T03:09:02.388Z,44.03
2023-05-15T03:11:36.224Z,44.12
2023-05-15T03:14:09.318Z,44.04
2023-05-15T03:16:41.943Z,44.35
2023-05-15T03:19:15.451Z,44.16
2023-05-15T03:21:48.291Z,44.30
2023-05-15T03:24:21.151Z,43.95
2023-05-15T03:26:54.511Z,44.00
2023-05-15T03:29:28.092Z,44.07
2023-05-15T03:32:01.458Z,44.28
2023-05-15T03:34:35.092Z,44.30
2023-05-15T03:37:08.457Z,44.01
2023-05-15T03:39:42.282Z,44.09
2023-05-15T03:42:15.184Z,43.94
2023-05-15T03:44:48.219Z,43.74
2023-05-15T03:47:21.233Z,43.89
2023-05-15T03:49:54.473Z,43.79
2023-05-15T03:52:30.147Z,43.84
2023-05-15T03:55:03.184Z,43.76
2023-05-15T03:57:36.358Z,43.84
2023-05-15T04:00:09.351Z,43.76
2023-05-15T04:02:42.074Z,43.73
2023-05-15T04:05:15.553Z,43.66
2023-05-15T04:07:49.402Z,43.76
2023-05-15T04:10:22.445Z,43.82
2023-05-15T04:13:09.179Z,43.61
2023-05-15T04:15:42.023Z,43.73
2023-05-15T04:18:15.181Z,43.76
2023-05-15T04:20:48.397Z,43.54
2023-05-15T04:23:21.312Z,43.61
2023-05-15T04:25:54.211Z,43.51
2023-05-15T04:28:28.743Z,43.48
2023-05-15T04:31:01.625Z,43.49
2023-05-15T04:33:35.485Z,43.72
2023-05-15T04:36:08.283Z,43.89
2023-05-15T04:38:41.271Z,43.83
2023-05-15T04:41:14.050Z,43.89
2023-05-15T04:43:47.091Z,43.77
2023-05-15T04:46:20.136Z,43.52
2023-05-15T04:48:56.703Z,43.49
2023-05-15T04:51:30.376Z,43.67
2023-05-15T04:54:06.216Z,43.86
2023-05-15T04:56:39.091Z,43.85
2023-05-15T04:59:12.476Z,43.81
2023-05-15T05:01:45.440Z,43.72
2023-05-15T05:04:18.446Z,43.66
2023-05-15T05:06:51.490Z,43.64
2023-05-15T05:09:24.520Z,43.75
2023-05-15T05:11:57.266Z,43.95
2023-05-15T05:14:30.354Z,43.78
2023-05-15T05:17:03.211Z,43.69
2023-05-15T05:19:36.418Z,43.60
2023-05-15T05:22:15.461Z,43.69
2023-05-15T05:24:48.746Z,43.83
2023-05-15T05:27:22.300Z,43.91
2023-05-15T05:29:55.531Z,43.99
2023-05-15T05:32:28.502Z,43.90
2023-05-15T05:35:01.605Z,43.93
2023-05-15T05:37:36.050Z,44.01
2023-05-15T05:40:09.292Z,44.00
2023-05-15T05:42:42.166Z,44.03
2023-05-15T05:45:15.565Z,43.95
2023-05-15T05:47:48.248Z,43.98
2023-05-15T05:50:21.467Z,44.06
2023-05-15T05:52:54.430Z,43.91
2023-05-15T05:55:27.705Z,43.91
2023-05-15T05:58:01.253Z,43.85
2023-05-15T06:00:33.381Z,44.04
2023-05-15T06:03:06.626Z,44.03
2023-05-15T06:05:39.375Z,43.95
2023-05-15T06:08:12.349Z,44.18
2023-05-15T06:10:45.238Z,44.29
2023-05-15T06:13:18.449Z,44.31
2023-05-15T06:15:51.582Z,44.24
2023-05-15T06:18:24.471Z,44.36
2023-05-15T06:20:57.193Z,44.19
2023-05-15T06:23:34.043Z,44.02
2023-05-15T06:26:07.509Z,44.59
2023-05-15T06:28:40.479Z,44.62
2023-05-15T06:31:13.372Z,44.75
2023-05-15T06:33:46.521Z,44.92
2023-05-15T06:36:19.404Z,45.09
2023-05-15T06:38:52.490Z,44.40
2023-05-15T06:41:25.693Z,44.12
2023-05-15T06:43:58.256Z,44.04
2023-05-15T06:46:31.579Z,43.79
2023-05-15T06:49:18.547Z,43.73
2023-05-15T06:51:51.432Z,44.17
2023-05-15T06:54:24.706Z,44.00
2023-05-15T06:56:59.520Z,43.96
2023-05-15T06:59:32.588Z,44.23
2023-05-15T07:02:05.740Z,43.96
2023-05-15T07:04:38.651Z,44.19
2023-05-15T07:07:11.693Z,44.06
2023-05-15T07:09:44.574Z,43.97
2023-05-15T07:12:17.794Z,44.29
2023-05-15T07:14:51.576Z,44.40
2023-05-15T07:17:24.691Z,44.20
2023-05-15T07:19:57.577Z,44.31
2023-05-15T07:22:31.430Z,43.89
2023-05-15T07:25:03.609Z,43.88
2023-05-15T07:27:36.738Z,44.00
2023-05-15T07:30:09.753Z,44.25
2023-05-15T07:32:56.411Z,44.29
2023-05-15T07:35:29.588Z,44.20
2023-05-15T07:38:02.584Z,45.00
2023-05-15T07:40:35.713Z,45.41
2023-05-15T07:43:08.865Z,45.36
2023-05-15T07:45:41.417Z,44.90
2023-05-15T07:48:14.483Z,44.67
2023-05-15T07:50:47.619Z,44.40
2023-05-15T07:53:20.514Z,44.24
2023-05-15T07:55:53.855Z,44.13
2023-05-15T07:58:27.730Z,44.10
2023-05-15T08:01:00.377Z,44.02
2023-05-15T08:03:33.663Z,43.98
2023-05-15T08:06:12.633Z,44.02
2023-05-15T08:08:45.656Z,43.97
2023-05-15T08:11:18.966Z,44.01
2023-05-15T08:13:52.611Z,44.03
2023-05-15T08:16:25.765Z,44.01
2023-05-15T08:18:58.497Z,44.12
2023-05-15T08:21:31.373Z,44.00
2023-05-15T08:24:04.415Z,43.94
2023-05-15T08:26:37.665Z,43.90
2023-05-15T08:29:10.804Z,43.87
2023-05-15T08:31:43.701Z,43.76
2023-05-15T08:34:16.690Z,43.86
2023-05-15T08:36:49.420Z,43.79
2023-05-15T08:39:22.645Z,43.79
2023-05-15T08:41:55.850Z,43.71
2023-05-15T08:44:28.476Z,43.60
2023-05-15T08:47:01.760Z,43.66
2023-05-15T08:49:34.709Z,43.63
2023-05-15T08:52:07.902Z,43.67
2023-05-15T08:54:41.433Z,43.51
2023-05-15T08:57:14.855Z,44.23
2023-05-15T08:59:47.747Z,44.41
2023-05-15T09:02:20.622Z,43.92
2023-05-15T09:04:53.701Z,43.77
2023-05-15T09:07:26.672Z,44.01
2023-05-15T09:09:59.458Z,43.85
2023-05-15T09:12:32.739Z,43.83
2023-05-15T09:15:05.898Z,43.68
2023-05-15T09:17:38.861Z,43.77
2023-05-15T09:20:11.863Z,43.72
2023-05-15T09:22:44.748Z,43.74
2023-05-15T09:25:17.795Z,43.72
2023-05-15T09:27:50.634Z,43.63
2023-05-15T09:30:23.637Z,43.69
2023-05-15T09:32:56.795Z,43.75
2023-05-15T09:35:30.019Z,43.85
2023-05-15T09:38:02.770Z,43.83
2023-05-15T09:40:36.066Z,43.81
2023-05-15T09:43:09.545Z,43.76
2023-05-15T09:45:42.796Z,43.75
2023-05-15T09:48:15.796Z,43.77
2023-05-15T09:50:48.511Z,43.92
2023-05-15T09:53:21.756Z,43.98
2023-05-15T09:55:55.020Z,43.95
2023-05-15T09:58:28.942Z,44.02
2023-05-15T10:01:01.768Z,43.94
2023-05-15T10:03:34.882Z,43.97
2023-05-15T10:06:07.887Z,44.02
2023-05-15T10:08:41.118Z,44.01
2023-05-15T10:11:14.953Z,43.90
2023-05-15T10:13:47.841Z,43.82
2023-05-15T10:16:20.642Z,43.49
2023-05-15T10:18:54.038Z,43.61
2023-05-15T10:21:28.011Z,43.68
2023-05-15T10:24:01.952Z,43.64
2023-05-15T10:26:34.899Z,43.70
2023-05-15T10:29:08.120Z,43.92
2023-05-15T10:31:42.220Z,44.34
2023-05-15T10:34:15.868Z,44.24
2023-05-15T10:36:48.876Z,44.15
2023-05-15T10:39:21.599Z,43.97
2023-05-15T10:42:08.494Z,43.60
2023-05-15T10:44:41.846Z,43.73
2023-05-15T10:47:14.751Z,43.65
2023-05-15T10:49:47.782Z,43.65
2023-05-15T10:52:20.628Z,43.68
2023-05-15T10:54:53.818Z,43.48
2023-05-15T10:57:26.938Z,43.44
2023-05-15T10:59:59.993Z,43.27
2023-05-15T11:02:33.026Z,43.26
2023-05-15T11:05:05.807Z,43.21
2023-05-15T11:07:38.993Z,43.35
2023-05-15T11:10:12.021Z,43.52
2023-05-15T11:12:44.810Z,42.90
2023-05-15T11:15:17.687Z,42.64
2023-05-15T11:17:51.003Z,42.82
2023-05-15T11:20:24.146Z,43.10
2023-05-15T11:22:56.772Z,43.20
2023-05-15T11:25:29.807Z,43.37
2023-05-15T11:28:02.984Z,43.31
2023-05-15T11:30:36.040Z,43.41
2023-05-15T11:33:09.187Z,43.22
2023-05-15T11:35:43.124Z,43.17
2023-05-15T11:38:18.867Z,43.26
2023-05-15T11:40:51.687Z,43.24
2023-05-15T11:43:24.922Z,42.92
2023-05-15T11:45:58.202Z,42.84
2023-05-15T11:48:31.101Z,43.14
2023-05-15T11:51:03.824Z,42.88
2023-05-15T11:53:37.053Z,43.14
2023-05-15T11:56:10.040Z,43.24
2023-05-15T11:58:42.823Z,43.25
2023-05-15T12:01:15.988Z,43.25
2023-05-15T12:03:49.279Z,43.31
2023-05-15T12:06:21.971Z,43.32
2023-05-15T12:08:54.731Z,43.34
2023-05-15T12:11:28.075Z,43.42
2023-05-15T12:14:01.113Z,43.42
2023-05-15T12:16:33.889Z,43.31
2023-05-15T12:19:06.844Z,43.39
2023-05-15T12:21:39.923Z,43.50
2023-05-15T12:24:12.817Z,43.40
2023-05-15T12:26:45.747Z,43.50
2023-05-15T12:29:19.044Z,43.45
2023-05-15T12:31:51.783Z,43.58
2023-05-15T12:34:24.980Z,43.56
2023-05-15T12:36:57.911Z,43.69
2023-05-15T12:39:30.991Z,43.68
2023-05-15T12:42:03.781Z,43.70
2023-05-15T12:44:36.928Z,43.75
2023-05-15T12:47:09.779Z,43.71
2023-05-15T12:49:42.917Z,43.78
2023-05-15T12:52:15.799Z,43.88
2023-05-15T12:54:48.793Z,43.92
2023-05-15T12:57:21.885Z,44.03
2023-05-15T12:59:54.837Z,43.98
2023-05-15T13:02:28.005Z,43.84
2023-05-15T13:05:01.064Z,43.84
2023-05-15T13:07:34.144Z,43.83
2023-05-15T13:10:06.973Z,43.85
2023-05-15T13:12:40.362Z,43.84
2023-05-15T13:15:14.047Z,43.87
2023-05-15T13:17:46.851Z,44.03
2023-05-15T13:20:19.827Z,43.99
2023-05-15T13:22:53.059Z,44.04
2023-05-15T13:25:25.889Z,44.09
2023-05-15T13:27:58.988Z,44.07
2023-05-15T13:30:32.155Z,44.04
2023-05-15T13:33:05.245Z,44.12
2023-05-15T13:35:37.956Z,44.12
2023-05-15T13:38:11.723Z,44.17
2023-05-15T13:40:44.108Z,44.23
2023-05-15T13:43:16.841Z,44.27
2023-05-15T13:45:49.865Z,44.20
2023-05-15T13:48:22.864Z,44.18
2023-05-15T13:50:56.161Z,44.17
2023-05-15T13:53:29.258Z,44.14
2023-05-15T13:56:02.042Z,44.11
2023-05-15T13:58:35.083Z,44.06
2023-05-15T14:01:08.197Z,44.01
2023-05-15T14:03:41.227Z,44.07
2023-05-15T14:06:28.017Z,43.91
2023-05-15T14:09:01.093Z,43.87
2023-05-15T14:11:34.065Z,43.78
2023-05-15T14:14:07.038Z,43.70
2023-05-15T14:16:40.157Z,43.63
2023-05-15T14:19:13.128Z,43.61
2023-05-15T14:21:45.943Z,43.59
2023-05-15T14:24:18.921Z,43.67
2023-05-15T14:26:52.183Z,43.72
2023-05-15T14:29:24.968Z,43.79
2023-05-15T14:31:58.283Z,43.82
2023-05-15T14:34:31.305Z,43.87
2023-05-15T14:37:04.167Z,43.92
2023-05-15T14:39:37.209Z,43.97
2023-05-15T14:42:10.269Z,44.02
2023-05-15T14:44:43.126Z,44.04
2023-05-15T14:47:18.864Z,44.11
2023-05-15T14:49:51.975Z,44.14
2023-05-15T14:52:24.981Z,44.16
2023-05-15T14:55:08.410Z,44.23
2023-05-15T14:57:31.135Z,44.24
2023-05-15T15:00:04.423Z,44.27
2023-05-15T15:02:37.280Z,44.29
2023-05-15T15:05:10.331Z,44.34
2023-05-15T15:07:43.021Z,44.59
2023-05-15T15:10:16.235Z,44.46
2023-05-15T15:12:49.025Z,44.55
2023-05-15T15:15:22.000Z,44.56
2023-05-15T15:17:55.220Z,44.57
2023-05-15T15:20:28.595Z,44.65
2023-05-15T15:23:01.268Z,44.67
2023-05-15T15:25:34.005Z,44.58
2023-05-15T15:28:07.366Z,44.58
2023-05-15T15:30:40.180Z,44.58
2023-05-15T15:33:13.176Z,44.55
2023-05-15T15:35:46.439Z,44.53
2023-05-15T15:38:19.296Z,44.50
2023-05-15T15:40:52.327Z,44.61
2023-05-15T15:43:25.253Z,44.63
2023-05-15T15:45:58.091Z,44.63
2023-05-15T15:48:31.465Z,44.58
2023-05-15T15:51:06.060Z,44.59
2023-05-15T15:53:39.249Z,44.56
2023-05-15T15:56:12.331Z,44.57
2023-05-15T15:58:45.424Z,44.53
2023-05-15T16:01:18.090Z,44.53
2023-05-15T16:03:51.353Z,44.47
2023-05-15T16:06:24.178Z,44.47
2023-05-15T16:08:57.614Z,44.41
2023-05-15T16:11:31.430Z,44.37
2023-05-15T16:14:04.341Z,44.32
2023-05-15T16:16:37.253Z,44.28
2023-05-15T16:19:10.669Z,44.19
2023-05-15T16:21:44.228Z,44.14
2023-05-15T16:24:17.440Z,44.09
2023-05-15T16:26:50.368Z,44.04
2023-05-15T16:29:23.282Z,44.09
2023-05-15T16:31:56.182Z,44.08
2023-05-15T16:34:29.263Z,44.14
2023-05-15T16:37:02.113Z,44.17
2023-05-15T16:39:35.362Z,44.21
2023-05-15T16:42:09.468Z,44.23
2023-05-15T16:44:41.409Z,44.03
2023-05-15T16:47:14.475Z,43.80
2023-05-15T16:49:49.780Z,43.92
2023-05-15T16:52:24.116Z,43.98
2023-05-15T16:54:57.323Z,44.03
2023-05-15T16:57:30.334Z,44.02
2023-05-15T17:00:03.134Z,44.03
2023-05-15T17:02:36.239Z,44.10
2023-05-15T17:05:09.134Z,44.09
2023-05-15T17:07:42.320Z,44.15
2023-05-15T17:10:15.301Z,44.15
2023-05-15T17:12:48.154Z,44.16
2023-05-15T17:15:21.169Z,44.19
2023-05-15T17:17:54.188Z,44.18
2023-05-15T17:20:27.278Z,44.20
2023-05-15T17:23:00.685Z,44.24
2023-05-15T17:25:34.561Z,44.24
2023-05-15T17:28:07.158Z,44.25
2023-05-15T17:30:40.404Z,44.29
2023-05-15T17:33:13.490Z,44.28
2023-05-15T17:35:46.206Z,44.21
2023-05-15T17:38:19.500Z,44.10
2023-05-15T17:40:52.216Z,44.02
2023-05-15T17:43:25.847Z,43.91
2023-05-15T17:45:59.526Z,43.64
2023-05-15T17:48:32.569Z,43.61
2023-05-15T17:51:05.237Z,43.47
2023-05-15T17:53:38.196Z,43.31
2023-05-15T17:56:11.220Z,43.12
2023-05-15T17:58:44.390Z,43.08
2023-05-15T18:01:17.267Z,43.12
2023-05-15T18:03:50.267Z,43.10
2023-05-15T18:06:23.264Z,43.10
2023-05-15T18:08:56.335Z,42.86
2023-05-15T18:11:29.501Z,42.77
2023-05-15T18:14:02.370Z,42.86
2023-05-15T18:16:35.382Z,42.77
2023-05-15T18:19:08.334Z,42.73
2023-05-15T18:21:41.252Z,42.71
2023-05-15T18:24:14.270Z,42.55
2023-05-15T18:26:47.280Z,42.57
2023-05-15T18:29:20.252Z,42.46
2023-05-15T18:31:53.326Z,42.48
2023-05-15T18:34:26.480Z,42.33
2023-05-15T18:36:59.471Z,42.37
2023-05-15T18:39:32.676Z,42.31
2023-05-15T18:42:05.557Z,42.16
2023-05-15T18:44:38.530Z,42.13
2023-05-15T18:47:11.584Z,42.11
2023-05-15T18:49:44.270Z,42.28
2023-05-15T18:52:17.582Z,42.15
2023-05-15T18:54:50.571Z,42.18
2023-05-15T18:57:23.352Z,42.20
2023-05-15T18:59:56.638Z,42.19
2023-05-15T19:02:29.537Z,42.06
2023-05-15T19:05:02.564Z,42.07
2023-05-15T19:07:35.573Z,42.04
2023-05-15T19:10:08.324Z,41.87
2023-05-15T19:12:41.460Z,41.98
2023-05-15T19:15:14.690Z,41.16
2023-05-15T19:17:47.669Z,41.09
2023-05-15T19:20:20.322Z,40.90
2023-05-15T19:22:53.684Z,41.31
2023-05-15T19:25:26.484Z,41.73
2023-05-15T19:27:59.582Z,41.81
2023-05-15T19:30:32.836Z,41.84
2023-05-15T19:33:06.837Z,42.06
2023-05-15T19:35:40.569Z,42.11
2023-05-15T19:38:13.652Z,42.24
2023-05-15T19:40:46.651Z,42.06
2023-05-15T19:43:19.516Z,42.28
2023-05-15T19:46:06.363Z,42.37
2023-05-15T19:48:39.363Z,42.45
2023-05-15T19:51:12.703Z,42.52
2023-05-15T19:53:45.845Z,42.53
2023-05-15T19:56:19.487Z,42.61
2023-05-15T19:58:52.843Z,42.64
2023-05-15T20:01:25.673Z,42.65
2023-05-15T20:03:58.825Z,42.69
2023-05-15T20:06:31.648Z,42.73
2023-05-15T20:09:04.390Z,42.75
2023-05-15T20:11:37.615Z,42.82
2023-05-15T20:14:10.675Z,42.78
2023-05-15T20:16:43.694Z,42.87
2023-05-15T20:19:16.870Z,42.87
2023-05-15T20:21:49.407Z,42.89
2023-05-15T20:24:22.691Z,42.87
2023-05-15T20:26:55.948Z,42.94
2023-05-15T20:29:29.811Z,42.95
2023-05-15T20:32:02.778Z,42.98
2023-05-15T20:34:35.810Z,42.96
2023-05-15T20:37:08.805Z,43.01
2023-05-15T20:39:41.946Z,43.05
2023-05-15T20:42:15.930Z,43.04
2023-05-15T20:44:49.960Z,43.06
2023-05-15T20:47:23.657Z,43.05
2023-05-15T20:49:56.850Z,43.05
2023-05-15T20:52:29.871Z,43.02
2023-05-15T20:55:02.630Z,43.07
2023-05-15T20:57:35.664Z,43.06
2023-05-15T21:00:08.636Z,43.07
2023-05-15T21:02:41.674Z,43.08
2023-05-15T21:05:14.507Z,43.09
2023-05-15T21:07:47.926Z,43.11
2023-05-15T21:10:21.500Z,43.14
2023-05-15T21:12:56.043Z,43.14
2023-05-15T21:15:27.894Z,42.97
2023-05-15T21:18:00.692Z,42.64
2023-05-15T21:20:35.270Z,42.64
2023-05-15T21:23:07.877Z,42.97
2023-05-15T21:25:40.947Z,43.01
2023-05-15T21:28:14.807Z,42.82
2023-05-15T21:30:47.933Z,42.86
2023-05-15T21:33:20.757Z,42.94
2023-05-15T21:35:53.850Z,42.93
2023-05-15T21:38:26.924Z,42.90
2023-05-15T21:40:59.929Z,42.69
2023-05-15T21:43:32.969Z,42.71
2023-05-15T21:46:06.918Z,42.71
2023-05-15T21:48:39.891Z,42.69
2023-05-15T21:51:12.931Z,42.84
2023-05-15T21:53:45.811Z,42.96
2023-05-15T21:56:18.600Z,42.80
2023-05-15T21:58:51.893Z,42.90
2023-05-15T22:01:25.017Z,43.05
2023-05-15T22:03:57.935Z,43.23
2023-05-15T22:06:30.897Z,42.83
2023-05-15T22:09:04.157Z,42.96
2023-05-15T22:11:37.957Z,42.98
2023-05-15T22:14:10.968Z,42.91
2023-05-15T22:16:44.061Z,43.14
2023-05-15T22:19:28.910Z,43.08
2023-05-15T22:21:49.932Z,42.99
2023-05-15T22:24:22.864Z,43.21
2023-05-15T22:26:56.014Z,43.13
2023-05-15T22:29:29.010Z,43.14
2023-05-15T22:32:02.029Z,43.04
2023-05-15T22:34:35.037Z,43.10
2023-05-15T22:37:07.961Z,43.06
2023-05-15T22:39:40.961Z,43.06
2023-05-15T22:42:13.927Z,43.19
2023-05-15T22:44:46.972Z,43.11
2023-05-15T22:47:19.955Z,43.09
2023-05-15T22:49:53.035Z,43.19
2023-05-15T22:52:25.627Z,43.17
2023-05-15T22:54:58.789Z,43.07
2023-05-15T22:57:32.013Z,43.21
2023-05-15T23:00:04.789Z,43.25
2023-05-15T23:02:38.054Z,43.33
2023-05-15T23:05:10.692Z,43.32
2023-05-15T23:07:44.014Z,43.12
2023-05-15T23:10:17.114Z,43.24
2023-05-15T23:12:50.078Z,43.00
2023-05-15T23:15:23.006Z,43.30
2023-05-15T23:17:56.341Z,43.21
2023-05-15T23:20:30.170Z,43.13
2023-05-15T23:23:03.022Z,43.18
2023-05-15T23:25:36.036Z,43.28
2023-05-15T23:28:08.793Z,43.40
2023-05-15T23:30:41.918Z,43.21
2023-05-15T23:33:15.231Z,43.24
2023-05-15T23:35:49.030Z,43.35
2023-05-15T23:38:22.011Z,43.22
2023-05-15T23:40:55.067Z,43.31
2023-05-15T23:43:27.958Z,43.29
2023-05-15T23:46:01.053Z,43.24
2023-05-15T23:48:34.183Z,43.30
2023-05-15T23:51:08.070Z,43.18
2023-05-15T23:53:41.279Z,43.31
2023-05-15T23:56:15.109Z,43.40
2023-05-15T23:58:51.950Z,43.27
